sensor_id;sensor_type;location;lat;lon;timestamp;P1;durP1;ratioP1;P2;durP2;ratioP2
23826;SDS011;12094;50.822;4.376;2022-07-01T00:00:51;9.95;;;7.22;;
23826;SDS011;12094;50.822;4.376;2022-07-01T00:03:19;14.10;;;7.28;;
23826;SDS011;12094;50.822;4.376;2022-07-01T00:05:46;12.95;;;7.47;;
23826;SDS011;12094;50.822;4.376;2022-07-01T00:08:13;16.90;;;7.25;;
23826;SDS011;12094;50.822;4.376;2022-07-01T00:10:40;10.18;;;7.00;;
23826;SDS011;12094;50.822;4.376;2022-07-01T00:13:07;15.85;;;7.40;;
23826;SDS011;12094;50.822;4.376;2022-07-01T00:15:35;14.68;;;8.13;;
23826;SDS011;12094;50.822;4.376;2022-07-01T00:18:03;13.38;;;7.55;;
23826;SDS011;12094;50.822;4.376;2022-07-01T00:20:31;16.40;;;8.02;;
23826;SDS011;12094;50.822;4.376;2022-07-01T00:22:58;16.00;;;7.88;;
23826;SDS011;12094;50.822;4.376;2022-07-01T00:25:25;12.25;;;8.05;;
23826;SDS011;12094;50.822;4.376;2022-07-01T00:27:52;13.73;;;7.90;;
23826;SDS011;12094;50.822;4.376;2022-07-01T00:30:20;13.98;;;7.25;;
23826;SDS011;12094;50.822;4.376;2022-07-01T00:32:50;16.05;;;8.50;;
23826;SDS011;12094;50.822;4.376;2022-07-01T00:35:20;20.88;;;8.68;;
23826;SDS011;12094;50.822;4.376;2022-07-01T00:37:47;16.25;;;8.27;;
23826;SDS011;12094;50.822;4.376;2022-07-01T00:40:14;16.77;;;8.90;;
23826;SDS011;12094;50.822;4.376;2022-07-01T00:42:45;16.10;;;8.65;;
23826;SDS011;12094;50.822;4.376;2022-07-01T00:45:13;20.38;;;9.00;;
23826;SDS011;12094;50.822;4.376;2022-07-01T00:47:41;17.15;;;9.88;;
23826;SDS011;12094;50.822;4.376;2022-07-01T00:50:10;20.98;;;9.45;;
23826;SDS011;12094;50.822;4.376;2022-07-01T00:52:40;18.55;;;9.10;;
23826;SDS011;12094;50.822;4.376;2022-07-01T00:55:11;17.75;;;9.70;;
23826;SDS011;12094;50.822;4.376;2022-07-01T00:57:40;20.17;;;9.67;;
23826;SDS011;12094;50.822;4.376;2022-07-01T01:00:10;19.60;;;10.30;;
23826;SDS011;12094;50.822;4.376;2022-07-01T01:02:39;20.00;;;9.68;;
23826;SDS011;12094;50.822;4.376;2022-07-01T01:05:07;20.75;;;10.82;;
23826;SDS011;12094;50.822;4.376;2022-07-01T01:07:35;22.90;;;10.50;;
23826;SDS011;12094;50.822;4.376;2022-07-01T01:10:03;21.95;;;11.43;;
23826;SDS011;12094;50.822;4.376;2022-07-01T01:12:31;26.35;;;11.00;;
23826;SDS011;12094;50.822;4.376;2022-07-01T01:15:02;24.45;;;11.10;;
23826;SDS011;12094;50.822;4.376;2022-07-01T01:17:29;27.65;;;11.40;;
23826;SDS011;12094;50.822;4.376;2022-07-01T01:19:56;32.35;;;12.55;;
23826;SDS011;12094;50.822;4.376;2022-07-01T01:22:24;26.30;;;11.68;;
23826;SDS011;12094;50.822;4.376;2022-07-01T01:24:55;23.83;;;12.18;;
23826;SDS011;12094;50.822;4.376;2022-07-01T01:27:24;23.80;;;11.15;;
23826;SDS011;12094;50.822;4.376;2022-07-01T01:29:51;24.27;;;11.23;;
23826;SDS011;12094;50.822;4.376;2022-07-01T01:32:18;23.73;;;11.07;;
23826;SDS011;12094;50.822;4.376;2022-07-01T01:34:45;24.13;;;11.05;;
23826;SDS011;12094;50.822;4.376;2022-07-01T01:37:12;26.65;;;11.15;;
23826;SDS011;12094;50.822;4.376;2022-07-01T01:39:40;24.25;;;11.68;;
23826;SDS011;12094;50.822;4.376;2022-07-01T01:42:07;26.23;;;12.15;;
23826;SDS011;12094;50.822;4.376;2022-07-01T01:44:35;23.58;;;11.02;;
23826;SDS011;12094;50.822;4.376;2022-07-01T01:47:06;23.90;;;11.23;;
23826;SDS011;12094;50.822;4.376;2022-07-01T01:49:33;24.67;;;11.05;;
23826;SDS011;12094;50.822;4.376;2022-07-01T01:52:00;22.15;;;10.57;;
23826;SDS011;12094;50.822;4.376;2022-07-01T01:54:28;21.73;;;11.02;;
23826;SDS011;12094;50.822;4.376;2022-07-01T01:56:57;22.67;;;10.00;;
23826;SDS011;12094;50.822;4.376;2022-07-01T01:59:25;24.08;;;10.57;;
23826;SDS011;12094;50.822;4.376;2022-07-01T02:01:53;15.77;;;9.65;;
23826;SDS011;12094;50.822;4.376;2022-07-01T02:04:20;19.85;;;9.85;;
23826;SDS011;12094;50.822;4.376;2022-07-01T02:06:47;19.17;;;9.70;;
23826;SDS011;12094;50.822;4.376;2022-07-01T02:09:15;15.30;;;8.45;;
23826;SDS011;12094;50.822;4.376;2022-07-01T02:11:42;19.05;;;10.23;;
23826;SDS011;12094;50.822;4.376;2022-07-01T02:14:09;21.52;;;9.32;;
23826;SDS011;12094;50.822;4.376;2022-07-01T02:16:38;23.50;;;10.18;;
23826;SDS011;12094;50.822;4.376;2022-07-01T02:19:05;15.38;;;9.10;;
23826;SDS011;12094;50.822;4.376;2022-07-01T02:21:32;19.65;;;9.75;;
23826;SDS011;12094;50.822;4.376;2022-07-01T02:24:00;21.30;;;9.80;;
23826;SDS011;12094;50.822;4.376;2022-07-01T02:26:27;16.75;;;9.40;;
23826;SDS011;12094;50.822;4.376;2022-07-01T02:28:54;16.55;;;8.98;;
23826;SDS011;12094;50.822;4.376;2022-07-01T02:31:21;20.63;;;9.82;;
23826;SDS011;12094;50.822;4.376;2022-07-01T02:33:48;22.30;;;9.57;;
23826;SDS011;12094;50.822;4.376;2022-07-01T02:36:16;20.83;;;9.48;;
23826;SDS011;12094;50.822;4.376;2022-07-01T02:38:43;18.73;;;9.27;;
23826;SDS011;12094;50.822;4.376;2022-07-01T02:41:10;19.63;;;9.52;;
23826;SDS011;12094;50.822;4.376;2022-07-01T02:43:39;18.73;;;8.93;;
23826;SDS011;12094;50.822;4.376;2022-07-01T02:46:06;16.50;;;9.15;;
23826;SDS011;12094;50.822;4.376;2022-07-01T02:48:34;23.10;;;10.10;;
23826;SDS011;12094;50.822;4.376;2022-07-01T02:51:02;13.90;;;9.25;;
23826;SDS011;12094;50.822;4.376;2022-07-01T02:53:29;18.55;;;9.23;;
23826;SDS011;12094;50.822;4.376;2022-07-01T02:55:56;17.27;;;9.00;;
23826;SDS011;12094;50.822;4.376;2022-07-01T02:58:26;20.05;;;9.63;;
23826;SDS011;12094;50.822;4.376;2022-07-01T03:00:53;20.52;;;8.68;;
23826;SDS011;12094;50.822;4.376;2022-07-01T03:03:20;16.35;;;8.40;;
23826;SDS011;12094;50.822;4.376;2022-07-01T03:05:47;18.00;;;8.73;;
23826;SDS011;12094;50.822;4.376;2022-07-01T03:08:15;22.05;;;8.60;;
23826;SDS011;12094;50.822;4.376;2022-07-01T03:10:43;20.33;;;8.23;;
23826;SDS011;12094;50.822;4.376;2022-07-01T03:13:10;15.63;;;6.95;;
23826;SDS011;12094;50.822;4.376;2022-07-01T03:15:37;16.20;;;7.85;;
23826;SDS011;12094;50.822;4.376;2022-07-01T03:18:04;15.95;;;7.93;;
23826;SDS011;12094;50.822;4.376;2022-07-01T03:20:33;20.05;;;8.32;;
23826;SDS011;12094;50.822;4.376;2022-07-01T03:23:00;14.70;;;7.80;;
23826;SDS011;12094;50.822;4.376;2022-07-01T03:25:31;12.40;;;7.47;;
23826;SDS011;12094;50.822;4.376;2022-07-01T03:28:00;12.20;;;7.97;;
23826;SDS011;12094;50.822;4.376;2022-07-01T03:30:29;16.98;;;8.32;;
23826;SDS011;12094;50.822;4.376;2022-07-01T03:32:57;17.48;;;8.43;;
23826;SDS011;12094;50.822;4.376;2022-07-01T03:35:24;15.95;;;8.35;;
23826;SDS011;12094;50.822;4.376;2022-07-01T03:38:03;15.68;;;8.82;;
23826;SDS011;12094;50.822;4.376;2022-07-01T03:40:34;16.67;;;8.45;;
23826;SDS011;12094;50.822;4.376;2022-07-01T03:43:01;14.82;;;8.27;;
23826;SDS011;12094;50.822;4.376;2022-07-01T03:45:31;18.40;;;8.75;;
23826;SDS011;12094;50.822;4.376;2022-07-01T03:47:58;17.15;;;8.18;;
23826;SDS011;12094;50.822;4.376;2022-07-01T03:50:26;17.85;;;9.00;;
23826;SDS011;12094;50.822;4.376;2022-07-01T03:52:56;16.40;;;8.00;;
23826;SDS011;12094;50.822;4.376;2022-07-01T03:55:43;11.85;;;7.50;;
23826;SDS011;12094;50.822;4.376;2022-07-01T03:58:10;12.75;;;8.63;;
23826;SDS011;12094;50.822;4.376;2022-07-01T04:00:38;11.75;;;7.55;;
23826;SDS011;12094;50.822;4.376;2022-07-01T04:03:06;20.95;;;7.30;;
23826;SDS011;12094;50.822;4.376;2022-07-01T04:05:36;11.75;;;7.05;;
23826;SDS011;12094;50.822;4.376;2022-07-01T04:08:05;18.65;;;7.47;;
23826;SDS011;12094;50.822;4.376;2022-07-01T04:10:35;12.63;;;6.43;;
23826;SDS011;12094;50.822;4.376;2022-07-01T04:13:03;10.38;;;6.47;;
23826;SDS011;12094;50.822;4.376;2022-07-01T04:15:54;12.25;;;6.07;;
23826;SDS011;12094;50.822;4.376;2022-07-01T04:18:23;12.00;;;5.82;;
23826;SDS011;12094;50.822;4.376;2022-07-01T04:21:00;16.15;;;5.93;;
23826;SDS011;12094;50.822;4.376;2022-07-01T04:23:45;13.52;;;6.07;;
23826;SDS011;12094;50.822;4.376;2022-07-01T04:26:13;20.38;;;6.07;;
23826;SDS011;12094;50.822;4.376;2022-07-01T04:29:02;12.32;;;5.30;;
23826;SDS011;12094;50.822;4.376;2022-07-01T04:31:29;10.85;;;5.80;;
23826;SDS011;12094;50.822;4.376;2022-07-01T04:33:56;12.98;;;6.00;;
23826;SDS011;12094;50.822;4.376;2022-07-01T04:36:23;11.27;;;5.32;;
23826;SDS011;12094;50.822;4.376;2022-07-01T04:38:51;22.83;;;5.68;;
23826;SDS011;12094;50.822;4.376;2022-07-01T04:41:19;11.98;;;5.70;;
23826;SDS011;12094;50.822;4.376;2022-07-01T04:44:05;11.63;;;5.90;;
23826;SDS011;12094;50.822;4.376;2022-07-01T04:46:33;15.15;;;6.00;;
23826;SDS011;12094;50.822;4.376;2022-07-01T04:49:00;14.75;;;5.85;;
23826;SDS011;12094;50.822;4.376;2022-07-01T04:51:28;11.50;;;4.93;;
23826;SDS011;12094;50.822;4.376;2022-07-01T04:53:57;17.50;;;5.22;;
23826;SDS011;12094;50.822;4.376;2022-07-01T04:56:24;11.57;;;5.57;;
23826;SDS011;12094;50.822;4.376;2022-07-01T04:58:57;9.43;;;4.65;;
23826;SDS011;12094;50.822;4.376;2022-07-01T05:01:25;15.35;;;4.93;;
23826;SDS011;12094;50.822;4.376;2022-07-01T05:03:54;10.68;;;4.78;;
23826;SDS011;12094;50.822;4.376;2022-07-01T05:06:21;12.90;;;5.18;;
23826;SDS011;12094;50.822;4.376;2022-07-01T05:08:49;14.73;;;5.05;;
23826;SDS011;12094;50.822;4.376;2022-07-01T05:11:16;11.05;;;4.90;;
23826;SDS011;12094;50.822;4.376;2022-07-01T05:13:43;15.18;;;5.00;;
23826;SDS011;12094;50.822;4.376;2022-07-01T05:16:10;11.40;;;4.85;;
23826;SDS011;12094;50.822;4.376;2022-07-01T05:18:43;11.55;;;4.72;;
23826;SDS011;12094;50.822;4.376;2022-07-01T05:21:29;10.98;;;4.68;;
23826;SDS011;12094;50.822;4.376;2022-07-01T05:24:14;13.25;;;4.90;;
23826;SDS011;12094;50.822;4.376;2022-07-01T05:26:43;13.27;;;4.72;;
23826;SDS011;12094;50.822;4.376;2022-07-01T05:29:10;9.80;;;4.78;;
23826;SDS011;12094;50.822;4.376;2022-07-01T05:31:39;9.25;;;4.65;;
23826;SDS011;12094;50.822;4.376;2022-07-01T05:34:09;7.63;;;4.57;;
23826;SDS011;12094;50.822;4.376;2022-07-01T05:36:36;12.93;;;4.85;;
23826;SDS011;12094;50.822;4.376;2022-07-01T05:39:04;10.98;;;4.70;;
23826;SDS011;12094;50.822;4.376;2022-07-01T05:41:33;12.32;;;4.32;;
23826;SDS011;12094;50.822;4.376;2022-07-01T05:44:03;11.18;;;4.47;;
23826;SDS011;12094;50.822;4.376;2022-07-01T05:46:30;8.93;;;4.72;;
23826;SDS011;12094;50.822;4.376;2022-07-01T05:48:57;9.45;;;4.50;;
23826;SDS011;12094;50.822;4.376;2022-07-01T05:51:24;7.97;;;4.55;;
23826;SDS011;12094;50.822;4.376;2022-07-01T05:53:51;7.90;;;4.97;;
23826;SDS011;12094;50.822;4.376;2022-07-01T05:56:18;16.48;;;4.85;;
23826;SDS011;12094;50.822;4.376;2022-07-01T05:58:45;15.00;;;4.75;;
23826;SDS011;12094;50.822;4.376;2022-07-01T06:01:15;13.15;;;4.72;;
23826;SDS011;12094;50.822;4.376;2022-07-01T06:03:42;12.10;;;4.90;;
23826;SDS011;12094;50.822;4.376;2022-07-01T06:06:12;11.38;;;4.85;;
23826;SDS011;12094;50.822;4.376;2022-07-01T06:08:39;10.38;;;4.38;;
23826;SDS011;12094;50.822;4.376;2022-07-01T06:11:06;9.02;;;3.53;;
23826;SDS011;12094;50.822;4.376;2022-07-01T06:13:35;18.25;;;4.82;;
23826;SDS011;12094;50.822;4.376;2022-07-01T06:16:05;8.48;;;4.35;;
23826;SDS011;12094;50.822;4.376;2022-07-01T06:18:33;14.27;;;4.32;;
23826;SDS011;12094;50.822;4.376;2022-07-01T06:21:02;13.00;;;4.05;;
23826;SDS011;12094;50.822;4.376;2022-07-01T06:23:29;15.18;;;4.18;;
23826;SDS011;12094;50.822;4.376;2022-07-01T06:25:59;10.93;;;3.83;;
23826;SDS011;12094;50.822;4.376;2022-07-01T06:28:28;10.30;;;3.60;;
23826;SDS011;12094;50.822;4.376;2022-07-01T06:30:58;15.45;;;4.60;;
23826;SDS011;12094;50.822;4.376;2022-07-01T06:33:28;15.57;;;4.07;;
23826;SDS011;12094;50.822;4.376;2022-07-01T06:35:57;14.38;;;4.03;;
23826;SDS011;12094;50.822;4.376;2022-07-01T06:38:28;10.55;;;3.97;;
23826;SDS011;12094;50.822;4.376;2022-07-01T06:40:58;8.02;;;3.65;;
23826;SDS011;12094;50.822;4.376;2022-07-01T06:43:49;8.75;;;3.55;;
23826;SDS011;12094;50.822;4.376;2022-07-01T06:46:17;16.77;;;4.20;;
23826;SDS011;12094;50.822;4.376;2022-07-01T06:48:44;13.20;;;3.50;;
23826;SDS011;12094;50.822;4.376;2022-07-01T06:51:12;9.95;;;3.63;;
23826;SDS011;12094;50.822;4.376;2022-07-01T06:53:39;10.60;;;3.47;;
23826;SDS011;12094;50.822;4.376;2022-07-01T06:56:06;9.80;;;5.13;;
23826;SDS011;12094;50.822;4.376;2022-07-01T06:58:34;10.60;;;3.33;;
23826;SDS011;12094;50.822;4.376;2022-07-01T07:01:01;11.50;;;2.83;;
23826;SDS011;12094;50.822;4.376;2022-07-01T07:03:27;8.20;;;2.88;;
23826;SDS011;12094;50.822;4.376;2022-07-01T07:05:55;10.75;;;3.00;;
23826;SDS011;12094;50.822;4.376;2022-07-01T07:08:22;6.93;;;2.10;;
23826;SDS011;12094;50.822;4.376;2022-07-01T07:10:49;9.82;;;2.85;;
23826;SDS011;12094;50.822;4.376;2022-07-01T07:13:17;6.90;;;2.45;;
23826;SDS011;12094;50.822;4.376;2022-07-01T07:15:44;9.45;;;2.30;;
23826;SDS011;12094;50.822;4.376;2022-07-01T07:18:12;8.10;;;2.40;;
23826;SDS011;12094;50.822;4.376;2022-07-01T07:20:39;13.32;;;2.70;;
23826;SDS011;12094;50.822;4.376;2022-07-01T07:23:06;9.02;;;2.08;;
23826;SDS011;12094;50.822;4.376;2022-07-01T07:25:33;6.97;;;1.80;;
23826;SDS011;12094;50.822;4.376;2022-07-01T07:28:02;10.27;;;2.28;;
23826;SDS011;12094;50.822;4.376;2022-07-01T07:30:30;11.23;;;1.90;;
23826;SDS011;12094;50.822;4.376;2022-07-01T07:32:57;8.43;;;2.10;;
23826;SDS011;12094;50.822;4.376;2022-07-01T07:35:27;7.80;;;2.22;;
23826;SDS011;12094;50.822;4.376;2022-07-01T07:37:58;9.43;;;2.10;;
23826;SDS011;12094;50.822;4.376;2022-07-01T07:40:26;9.57;;;1.85;;
23826;SDS011;12094;50.822;4.376;2022-07-01T07:42:56;9.20;;;1.77;;
23826;SDS011;12094;50.822;4.376;2022-07-01T07:45:24;8.98;;;1.65;;
23826;SDS011;12094;50.822;4.376;2022-07-01T07:47:51;5.75;;;1.77;;
23826;SDS011;12094;50.822;4.376;2022-07-01T07:50:22;14.93;;;1.80;;
23826;SDS011;12094;50.822;4.376;2022-07-01T07:52:50;8.73;;;1.55;;
23826;SDS011;12094;50.822;4.376;2022-07-01T07:55:17;14.27;;;1.98;;
23826;SDS011;12094;50.822;4.376;2022-07-01T07:57:46;10.68;;;2.05;;
23826;SDS011;12094;50.822;4.376;2022-07-01T08:00:13;8.60;;;1.45;;
23826;SDS011;12094;50.822;4.376;2022-07-01T08:02:40;8.57;;;1.90;;
23826;SDS011;12094;50.822;4.376;2022-07-01T08:05:08;6.30;;;1.42;;
23826;SDS011;12094;50.822;4.376;2022-07-01T08:07:38;7.90;;;1.77;;
23826;SDS011;12094;50.822;4.376;2022-07-01T08:10:08;4.28;;;1.23;;
23826;SDS011;12094;50.822;4.376;2022-07-01T08:12:37;9.60;;;1.50;;
23826;SDS011;12094;50.822;4.376;2022-07-01T08:15:05;7.57;;;1.52;;
23826;SDS011;12094;50.822;4.376;2022-07-01T08:17:36;12.52;;;1.55;;
23826;SDS011;12094;50.822;4.376;2022-07-01T08:20:03;11.05;;;1.63;;
23826;SDS011;12094;50.822;4.376;2022-07-01T08:22:30;7.13;;;1.70;;
23826;SDS011;12094;50.822;4.376;2022-07-01T08:24:58;3.50;;;1.10;;
23826;SDS011;12094;50.822;4.376;2022-07-01T08:27:27;11.68;;;1.65;;
23826;SDS011;12094;50.822;4.376;2022-07-01T08:29:54;8.27;;;1.50;;
23826;SDS011;12094;50.822;4.376;2022-07-01T08:32:21;13.18;;;1.60;;
23826;SDS011;12094;50.822;4.376;2022-07-01T08:34:52;5.72;;;1.50;;
23826;SDS011;12094;50.822;4.376;2022-07-01T08:37:23;5.78;;;1.50;;
23826;SDS011;12094;50.822;4.376;2022-07-01T08:39:53;12.10;;;2.17;;
23826;SDS011;12094;50.822;4.376;2022-07-01T08:42:20;6.40;;;1.98;;
23826;SDS011;12094;50.822;4.376;2022-07-01T08:44:48;7.97;;;2.05;;
23826;SDS011;12094;50.822;4.376;2022-07-01T08:47:17;7.65;;;1.55;;
23826;SDS011;12094;50.822;4.376;2022-07-01T08:49:44;6.05;;;1.30;;
23826;SDS011;12094;50.822;4.376;2022-07-01T08:52:11;8.32;;;1.38;;
23826;SDS011;12094;50.822;4.376;2022-07-01T08:54:38;6.13;;;1.50;;
23826;SDS011;12094;50.822;4.376;2022-07-01T08:57:08;6.60;;;1.10;;
23826;SDS011;12094;50.822;4.376;2022-07-01T08:59:37;9.88;;;1.52;;
23826;SDS011;12094;50.822;4.376;2022-07-01T09:02:05;8.43;;;1.25;;
23826;SDS011;12094;50.822;4.376;2022-07-01T09:04:32;7.03;;;1.25;;
23826;SDS011;12094;50.822;4.376;2022-07-01T09:07:07;3.80;;;1.30;;
23826;SDS011;12094;50.822;4.376;2022-07-01T09:09:38;8.68;;;1.70;;
23826;SDS011;12094;50.822;4.376;2022-07-01T09:12:07;6.68;;;1.50;;
23826;SDS011;12094;50.822;4.376;2022-07-01T09:14:37;4.25;;;1.27;;
23826;SDS011;12094;50.822;4.376;2022-07-01T09:17:06;6.22;;;1.40;;
23826;SDS011;12094;50.822;4.376;2022-07-01T09:19:37;6.32;;;2.50;;
23826;SDS011;12094;50.822;4.376;2022-07-01T09:22:12;13.13;;;1.92;;
23826;SDS011;12094;50.822;4.376;2022-07-01T09:24:40;6.28;;;1.88;;
23826;SDS011;12094;50.822;4.376;2022-07-01T09:27:14;7.07;;;1.55;;
23826;SDS011;12094;50.822;4.376;2022-07-01T09:29:51;6.32;;;2.22;;
23826;SDS011;12094;50.822;4.376;2022-07-01T09:32:20;8.25;;;1.80;;
23826;SDS011;12094;50.822;4.376;2022-07-01T09:34:49;4.82;;;1.65;;
23826;SDS011;12094;50.822;4.376;2022-07-01T09:37:22;4.30;;;1.73;;
23826;SDS011;12094;50.822;4.376;2022-07-01T09:39:55;5.28;;;1.70;;
23826;SDS011;12094;50.822;4.376;2022-07-01T09:42:25;6.50;;;2.22;;
23826;SDS011;12094;50.822;4.376;2022-07-01T09:44:58;4.63;;;1.90;;
23826;SDS011;12094;50.822;4.376;2022-07-01T09:47:34;5.85;;;2.10;;
23826;SDS011;12094;50.822;4.376;2022-07-01T09:50:04;5.35;;;2.25;;
23826;SDS011;12094;50.822;4.376;2022-07-01T09:52:32;5.38;;;2.20;;
23826;SDS011;12094;50.822;4.376;2022-07-01T09:55:05;7.20;;;2.10;;
23826;SDS011;12094;50.822;4.376;2022-07-01T09:57:34;7.43;;;2.33;;
23826;SDS011;12094;50.822;4.376;2022-07-01T10:00:05;9.68;;;2.10;;
23826;SDS011;12094;50.822;4.376;2022-07-01T10:02:34;10.20;;;2.60;;
23826;SDS011;12094;50.822;4.376;2022-07-01T10:05:09;5.60;;;2.20;;
23826;SDS011;12094;50.822;4.376;2022-07-01T10:12:55;3.28;;;1.90;;
23826;SDS011;12094;50.822;4.376;2022-07-01T10:15:25;5.07;;;1.88;;
23826;SDS011;12094;50.822;4.376;2022-07-01T10:17:54;7.88;;;1.70;;
23826;SDS011;12094;50.822;4.376;2022-07-01T10:20:25;3.78;;;1.83;;
23826;SDS011;12094;50.822;4.376;2022-07-01T10:23:01;7.40;;;2.05;;
23826;SDS011;12094;50.822;4.376;2022-07-01T10:25:39;6.90;;;1.80;;
23826;SDS011;12094;50.822;4.376;2022-07-01T10:41:41;5.47;;;1.70;;
23826;SDS011;12094;50.822;4.376;2022-07-01T10:44:40;7.28;;;2.42;;
23826;SDS011;12094;50.822;4.376;2022-07-01T10:47:28;7.05;;;1.90;;
23826;SDS011;12094;50.822;4.376;2022-07-01T10:49:57;5.15;;;2.15;;
23826;SDS011;12094;50.822;4.376;2022-07-01T10:53:02;7.93;;;2.00;;
23826;SDS011;12094;50.822;4.376;2022-07-01T10:55:36;3.95;;;1.65;;
23826;SDS011;12094;50.822;4.376;2022-07-01T10:58:04;4.57;;;1.65;;
23826;SDS011;12094;50.822;4.376;2022-07-01T11:00:32;12.68;;;2.00;;
23826;SDS011;12094;50.822;4.376;2022-07-01T11:03:05;6.07;;;1.75;;
23826;SDS011;12094;50.822;4.376;2022-07-01T11:05:35;7.53;;;1.58;;
23826;SDS011;12094;50.822;4.376;2022-07-01T11:08:05;5.57;;;1.65;;
23826;SDS011;12094;50.822;4.376;2022-07-01T11:13:06;7.18;;;1.40;;
23826;SDS011;12094;50.822;4.376;2022-07-01T11:15:34;12.18;;;1.85;;
23826;SDS011;12094;50.822;4.376;2022-07-01T11:18:03;8.73;;;1.52;;
23826;SDS011;12094;50.822;4.376;2022-07-01T11:20:31;7.30;;;2.60;;
23826;SDS011;12094;50.822;4.376;2022-07-01T11:22:59;4.53;;;1.52;;
23826;SDS011;12094;50.822;4.376;2022-07-01T11:25:27;8.35;;;1.70;;
23826;SDS011;12094;50.822;4.376;2022-07-01T11:27:55;8.00;;;1.58;;
23826;SDS011;12094;50.822;4.376;2022-07-01T11:30:23;14.52;;;1.90;;
23826;SDS011;12094;50.822;4.376;2022-07-01T11:32:51;5.38;;;1.38;;
23826;SDS011;12094;50.822;4.376;2022-07-01T11:35:27;6.47;;;1.60;;
23826;SDS011;12094;50.822;4.376;2022-07-01T11:41:05;2.78;;;0.73;;
23826;SDS011;12094;50.822;4.376;2022-07-01T11:43:37;4.97;;;1.25;;
23826;SDS011;12094;50.822;4.376;2022-07-01T11:46:11;1.83;;;0.60;;
23826;SDS011;12094;50.822;4.376;2022-07-01T11:48:42;2.78;;;0.57;;
23826;SDS011;12094;50.822;4.376;2022-07-01T11:51:15;6.13;;;1.10;;
23826;SDS011;12094;50.822;4.376;2022-07-01T11:53:46;6.30;;;1.00;;
23826;SDS011;12094;50.822;4.376;2022-07-01T11:56:27;5.57;;;0.93;;
23826;SDS011;12094;50.822;4.376;2022-07-01T11:58:56;2.45;;;1.00;;
23826;SDS011;12094;50.822;4.376;2022-07-01T12:01:28;3.80;;;0.90;;
23826;SDS011;12094;50.822;4.376;2022-07-01T12:04:02;4.38;;;0.75;;
23826;SDS011;12094;50.822;4.376;2022-07-01T12:06:31;5.85;;;0.93;;
23826;SDS011;12094;50.822;4.376;2022-07-01T12:09:02;4.60;;;0.80;;
23826;SDS011;12094;50.822;4.376;2022-07-01T12:11:33;8.60;;;1.10;;
23826;SDS011;12094;50.822;4.376;2022-07-01T12:14:08;6.88;;;0.93;;
23826;SDS011;12094;50.822;4.376;2022-07-01T12:16:40;5.40;;;1.00;;
23826;SDS011;12094;50.822;4.376;2022-07-01T12:19:08;3.03;;;0.90;;
23826;SDS011;12094;50.822;4.376;2022-07-01T12:21:57;5.30;;;0.70;;
23826;SDS011;12094;50.822;4.376;2022-07-01T12:24:25;8.13;;;1.00;;
23826;SDS011;12094;50.822;4.376;2022-07-01T12:26:58;2.28;;;0.70;;
23826;SDS011;12094;50.822;4.376;2022-07-01T12:32:24;7.13;;;0.82;;
23826;SDS011;12094;50.822;4.376;2022-07-01T12:34:54;5.28;;;0.85;;
23826;SDS011;12094;50.822;4.376;2022-07-01T12:37:36;4.90;;;1.00;;
23826;SDS011;12094;50.822;4.376;2022-07-01T12:40:05;3.13;;;0.85;;
23826;SDS011;12094;50.822;4.376;2022-07-01T12:42:37;7.40;;;1.00;;
23826;SDS011;12094;50.822;4.376;2022-07-01T12:45:12;3.63;;;0.60;;
23826;SDS011;12094;50.822;4.376;2022-07-01T12:47:44;3.28;;;0.93;;
23826;SDS011;12094;50.822;4.376;2022-07-01T12:53:02;4.68;;;1.08;;
23826;SDS011;12094;50.822;4.376;2022-07-01T12:55:43;4.18;;;0.95;;
23826;SDS011;12094;50.822;4.376;2022-07-01T12:58:14;1.95;;;0.70;;
23826;SDS011;12094;50.822;4.376;2022-07-01T13:00:49;4.68;;;0.90;;
23826;SDS011;12094;50.822;4.376;2022-07-01T13:03:22;2.78;;;1.00;;
23826;SDS011;12094;50.822;4.376;2022-07-01T13:05:51;3.15;;;0.70;;
23826;SDS011;12094;50.822;4.376;2022-07-01T13:08:19;2.78;;;0.93;;
23826;SDS011;12094;50.822;4.376;2022-07-01T13:10:50;9.02;;;1.00;;
23826;SDS011;12094;50.822;4.376;2022-07-01T13:13:18;3.83;;;1.00;;
23826;SDS011;12094;50.822;4.376;2022-07-01T13:15:46;3.65;;;0.88;;
23826;SDS011;12094;50.822;4.376;2022-07-01T13:18:15;2.30;;;0.60;;
23826;SDS011;12094;50.822;4.376;2022-07-01T13:20:46;5.28;;;0.90;;
23826;SDS011;12094;50.822;4.376;2022-07-01T13:23:13;2.97;;;1.25;;
23826;SDS011;12094;50.822;4.376;2022-07-01T13:25:42;2.35;;;0.90;;
23826;SDS011;12094;50.822;4.376;2022-07-01T13:28:09;3.97;;;0.90;;
23826;SDS011;12094;50.822;4.376;2022-07-01T13:30:38;4.45;;;1.17;;
23826;SDS011;12094;50.822;4.376;2022-07-01T13:33:06;2.92;;;0.77;;
23826;SDS011;12094;50.822;4.376;2022-07-01T13:35:34;1.90;;;0.60;;
23826;SDS011;12094;50.822;4.376;2022-07-01T13:38:02;3.28;;;0.70;;
23826;SDS011;12094;50.822;4.376;2022-07-01T13:40:29;3.20;;;0.93;;
23826;SDS011;12094;50.822;4.376;2022-07-01T13:42:56;4.25;;;1.05;;
23826;SDS011;12094;50.822;4.376;2022-07-01T13:45:23;3.50;;;1.02;;
23826;SDS011;12094;50.822;4.376;2022-07-01T13:47:51;11.93;;;1.13;;
23826;SDS011;12094;50.822;4.376;2022-07-01T13:50:20;3.65;;;0.90;;
23826;SDS011;12094;50.822;4.376;2022-07-01T13:52:47;4.63;;;0.95;;
23826;SDS011;12094;50.822;4.376;2022-07-01T13:55:16;7.60;;;0.90;;
23826;SDS011;12094;50.822;4.376;2022-07-01T13:57:44;3.33;;;0.95;;
23826;SDS011;12094;50.822;4.376;2022-07-01T14:02:45;4.38;;;1.17;;
23826;SDS011;12094;50.822;4.376;2022-07-01T14:05:14;4.30;;;1.00;;
23826;SDS011;12094;50.822;4.376;2022-07-01T14:07:42;5.20;;;1.05;;
23826;SDS011;12094;50.822;4.376;2022-07-01T14:10:11;5.13;;;1.17;;
23826;SDS011;12094;50.822;4.376;2022-07-01T14:12:39;6.75;;;0.93;;
23826;SDS011;12094;50.822;4.376;2022-07-01T14:15:11;3.05;;;0.73;;
23826;SDS011;12094;50.822;4.376;2022-07-01T14:17:42;6.25;;;1.30;;
23826;SDS011;12094;50.822;4.376;2022-07-01T14:20:11;7.05;;;1.20;;
23826;SDS011;12094;50.822;4.376;2022-07-01T14:22:38;3.97;;;0.60;;
23826;SDS011;12094;50.822;4.376;2022-07-01T14:25:06;3.72;;;0.95;;
23826;SDS011;12094;50.822;4.376;2022-07-01T14:27:34;5.57;;;0.80;;
23826;SDS011;12094;50.822;4.376;2022-07-01T14:30:05;4.60;;;0.80;;
23826;SDS011;12094;50.822;4.376;2022-07-01T14:32:36;3.33;;;0.88;;
23826;SDS011;12094;50.822;4.376;2022-07-01T14:35:05;9.73;;;1.45;;
23826;SDS011;12094;50.822;4.376;2022-07-01T14:37:33;4.47;;;0.90;;
23826;SDS011;12094;50.822;4.376;2022-07-01T14:40:00;5.40;;;1.00;;
23826;SDS011;12094;50.822;4.376;2022-07-01T14:42:28;2.90;;;0.90;;
23826;SDS011;12094;50.822;4.376;2022-07-01T14:45:00;5.45;;;1.10;;
23826;SDS011;12094;50.822;4.376;2022-07-01T14:47:29;4.43;;;1.13;;
23826;SDS011;12094;50.822;4.376;2022-07-01T14:49:57;5.72;;;0.82;;
23826;SDS011;12094;50.822;4.376;2022-07-01T14:52:27;2.75;;;0.88;;
23826;SDS011;12094;50.822;4.376;2022-07-01T14:54:57;3.72;;;0.80;;
23826;SDS011;12094;50.822;4.376;2022-07-01T14:57:24;3.70;;;0.93;;
23826;SDS011;12094;50.822;4.376;2022-07-01T14:59:52;4.63;;;0.77;;
23826;SDS011;12094;50.822;4.376;2022-07-01T15:02:19;5.07;;;0.70;;
23826;SDS011;12094;50.822;4.376;2022-07-01T15:04:47;6.07;;;1.20;;
23826;SDS011;12094;50.822;4.376;2022-07-01T15:07:15;6.53;;;1.08;;
23826;SDS011;12094;50.822;4.376;2022-07-01T15:09:43;5.10;;;1.05;;
23826;SDS011;12094;50.822;4.376;2022-07-01T15:12:10;5.25;;;1.40;;
23826;SDS011;12094;50.822;4.376;2022-07-01T15:14:38;4.82;;;0.90;;
23826;SDS011;12094;50.822;4.376;2022-07-01T15:17:07;3.15;;;0.80;;
23826;SDS011;12094;50.822;4.376;2022-07-01T15:19:35;3.72;;;1.00;;
23826;SDS011;12094;50.822;4.376;2022-07-01T15:22:05;5.93;;;1.02;;
23826;SDS011;12094;50.822;4.376;2022-07-01T15:24:37;3.70;;;0.90;;
23826;SDS011;12094;50.822;4.376;2022-07-01T15:27:05;5.22;;;0.90;;